Time;durP1;ratioP1;P1;durP2;ratioP2;P2;SDS_P1;SDS_P2;PMS_P1;PMS_P2;Temp;Humidity;BMP_temperature;BMP_pressure;BME280_temperature;BME280_humidity;BME280_pressure;Samples;Min_cycle;Max_cycle;Signal;HPM_P1;HPM_P2
2022/03/25 00:06:28;;;;;;;0.20;0.10;;;12.80;99.90;;;;;;20893446;28;20241;-63
2022/03/25 00:16:33;;;;;;;0.20;0.10;;;12.70;99.90;;;;;;20824175;28;20346;-63
2022/03/25 00:26:37;;;;;;;0.20;0.10;;;12.70;99.90;;;;;;20806305;28;20278;-64
2022/03/25 00:36:43;;;;;;;0.20;0.10;;;12.60;99.90;;;;;;20845987;28;20285;-64
2022/03/25 00:46:47;;;;;;;0.20;0.10;;;12.50;99.90;;;;;;20904264;28;20273;-63
2022/03/25 00:56:52;;;;;;;0.20;0.10;;;12.40;99.90;;;;;;20897606;28;20226;-64
2022/03/25 01:06:56;;;;;;;0.20;0.10;;;12.30;99.90;;;;;;20854673;28;20241;-65
2022/03/25 01:17:02;;;;;;;0.20;0.10;;;12.30;99.90;;;;;;20806118;28;20249;-66
2022/03/25 01:27:06;;;;;;;0.20;0.10;;;12.20;99.90;;;;;;20806309;28;20238;-65
2022/03/25 01:37:11;;;;;;;0.20;0.10;;;12.20;99.90;;;;;;20832993;28;20231;-64
2022/03/25 01:47:17;;;;;;;0.20;0.10;;;12.20;99.90;;;;;;20887912;28;20233;-65
2022/03/25 01:57:25;;;;;;;0.53;0.53;;;12.20;99.90;;;;;;20888248;28;20201;-65
2022/03/25 02:07:29;;;;;;;0.20;0.10;;;12.00;99.90;;;;;;20864149;28;20298;-65
2022/03/25 02:17:35;;;;;;;0.20;0.10;;;11.90;99.90;;;;;;20803035;28;20219;-65
2022/03/25 02:27:40;;;;;;;0.20;0.10;;;11.80;99.90;;;;;;20803725;28;20257;-63
2022/03/25 02:37:43;;;;;;;0.20;0.10;;;11.80;99.90;;;;;;20845698;28;20198;-64
2022/03/25 02:47:49;;;;;;;0.20;0.10;;;11.80;99.90;;;;;;20883595;28;20238;-70
2022/03/25 02:57:53;;;;;;;0.23;0.23;;;11.90;99.90;;;;;;20881068;28;20198;-70
2022/03/25 03:07:58;;;;;;;0.20;0.10;;;12.10;99.90;;;;;;20856016;28;20234;-70
2022/03/25 03:18:02;;;;;;;0.20;0.10;;;12.20;99.90;;;;;;20798112;28;20230;-78
2022/03/25 03:28:08;;;;;;;0.20;0.10;;;12.10;99.90;;;;;;20783246;28;20250;-75
2022/03/25 03:38:13;;;;;;;0.20;0.10;;;12.20;99.90;;;;;;20847679;28;20210;-77
2022/03/25 03:48:18;;;;;;;0.20;0.10;;;12.10;99.90;;;;;;20879578;28;20249;-76
2022/03/25 03:58:23;;;;;;;0.20;0.10;;;12.10;99.90;;;;;;20879317;28;20374;-63
2022/03/25 04:08:28;;;;;;;0.20;0.10;;;12.10;99.90;;;;;;20848307;28;20639;-63
2022/03/25 04:18:32;;;;;;;0.20;0.10;;;12.00;99.90;;;;;;20797074;28;20409;-64
2022/03/25 04:28:37;;;;;;;0.20;0.10;;;11.80;99.90;;;;;;20798584;28;20226;-63
2022/03/25 04:38:41;;;;;;;0.20;0.10;;;11.60;99.90;;;;;;20865774;28;20515;-76
2022/03/25 04:48:46;;;;;;;0.20;0.10;;;11.40;99.90;;;;;;20873882;28;20238;-73
2022/03/25 04:58:50;;;;;;;0.20;0.10;;;10.90;99.90;;;;;;20892628;28;20289;-76
2022/03/25 05:08:55;;;;;;;0.20;0.10;;;10.70;99.90;;;;;;20855058;28;20234;-63
2022/03/25 05:18:59;;;;;;;0.20;0.10;;;10.50;99.90;;;;;;20808837;28;20227;-64
2022/03/25 05:29:04;;;;;;;0.20;0.10;;;10.20;99.90;;;;;;20805769;28;20238;-63
2022/03/25 05:39:10;;;;;;;0.20;0.10;;;10.40;99.90;;;;;;20863330;28;20202;-63
2022/03/25 05:49:15;;;;;;;0.20;0.10;;;10.40;99.90;;;;;;20866114;28;20230;-63
2022/03/25 05:59:19;;;;;;;0.20;0.10;;;10.50;99.90;;;;;;20867982;28;20205;-64
2022/03/25 06:09:24;;;;;;;0.20;0.10;;;10.70;99.90;;;;;;20845629;28;20251;-64
2022/03/25 06:19:28;;;;;;;0.20;0.10;;;10.80;99.90;;;;;;20801393;28;20235;-65
2022/03/25 06:29:35;;;;;;;0.20;0.10;;;11.20;99.90;;;;;;20801200;28;20277;-64
2022/03/25 06:39:39;;;;;;;0.20;0.10;;;11.30;99.90;;;;;;20804807;28;20207;-65
2022/03/25 06:49:45;;;;;;;0.20;0.10;;;11.60;99.90;;;;;;20797333;28;20234;-65
2022/03/25 06:59:49;;;;;;;0.20;0.20;;;12.00;99.90;;;;;;20790754;28;20226;-64
2022/03/25 07:09:55;;;;;;;1.50;0.97;;;12.50;99.90;;;;;;20829555;28;20501;-66
2022/03/25 07:19:58;;;;;;;0.20;0.10;;;13.30;99.90;;;;;;20854011;28;20210;-65
2022/03/25 07:30:05;;;;;;;0.20;0.10;;;13.60;99.90;;;;;;20870537;28;20226;-64
2022/03/25 07:40:10;;;;;;;0.20;0.10;;;13.90;99.90;;;;;;20835736;28;20211;-67
2022/03/25 07:50:17;;;;;;;0.20;0.10;;;14.10;99.90;;;;;;20790308;28;20234;-67
2022/03/25 08:00:21;;;;;;;0.20;0.07;;;14.40;99.90;;;;;;20790008;28;20221;-63
2022/03/25 08:10:28;;;;;;;0.20;0.10;;;14.60;99.90;;;;;;20804014;28;20234;-63
2022/03/25 08:20:35;;;;;;;0.20;0.10;;;14.90;99.90;;;;;;20804329;28;20233;-64
2022/03/25 08:30:41;;;;;;;0.57;0.57;;;15.10;99.90;;;;;;20843628;28;20295;-65
2022/03/25 08:40:45;;;;;;;0.20;0.10;;;15.40;99.90;;;;;;20859062;28;20277;-64
2022/03/25 08:51:10;;;;;;;0.20;0.10;;;15.70;99.90;;;;;;20918679;28;20237;-63
2022/03/25 09:01:14;;;;;;;0.20;0.10;;;15.80;99.90;;;;;;20967571;28;20224;-61
2022/03/25 09:11:22;;;;;;;0.20;0.10;;;16.30;99.90;;;;;;20948752;28;20225;-63
2022/03/25 09:21:25;;;;;;;2.73;2.53;;;16.10;99.90;;;;;;20965886;28;20198;-65
2022/03/25 09:31:30;;;;;;;0.20;0.10;;;16.40;99.90;;;;;;20956288;28;20226;-64
2022/03/25 09:41:46;;;;;;;0.20;0.20;;;16.80;99.90;;;;;;20932801;28;20205;-64
2022/03/25 09:51:52;;;;;;;0.20;0.10;;;16.60;99.90;;;;;;20908243;28;20234;-65
2022/03/25 10:02:01;;;;;;;0.20;0.07;;;16.60;99.90;;;;;;20880233;28;20200;-65
2022/03/25 10:12:20;;;;;;;0.20;0.10;;;16.80;99.90;;;;;;20878304;28;20242;-61
2022/03/25 10:22:24;;;;;;;0.30;0.30;;;17.10;99.90;;;;;;20873523;28;20202;-69
2022/03/25 10:32:30;;;;;;;0.20;0.00;;;17.50;99.90;;;;;;20863197;28;20230;-71
2022/03/25 10:42:34;;;;;;;0.20;0.10;;;17.20;99.90;;;;;;20866126;28;20210;-63
2022/03/25 10:52:39;;;;;;;0.20;0.10;;;17.00;99.90;;;;;;20863825;28;20249;-64
2022/03/25 11:02:44;;;;;;;0.20;0.10;;;17.60;99.90;;;;;;20864117;28;20202;-63
2022/03/25 11:12:51;;;;;;;0.20;0.10;;;17.20;99.90;;;;;;20865379;28;20226;-64
2022/03/25 11:23:04;;;;;;;0.20;0.10;;;17.90;99.90;;;;;;20863474;28;20205;-63
2022/03/25 11:33:10;;;;;;;0.20;0.17;;;19.50;99.90;;;;;;20863069;28;20237;-63
2022/03/25 11:43:16;;;;;;;0.20;0.10;;;19.50;99.90;;;;;;20864983;28;20214;-62
2022/03/25 11:53:34;;;;;;;0.60;0.60;;;19.80;99.90;;;;;;20861948;28;20246;-62
2022/03/25 12:03:42;;;;;;;0.20;0.10;;;19.20;99.90;;;;;;20865359;28;20288;-63
2022/03/25 12:14:08;;;;;;;0.20;0.10;;;19.60;99.90;;;;;;20864453;28;20291;-68
2022/03/25 12:24:12;;;;;;;0.20;0.10;;;20.50;99.90;;;;;;20862176;28;20221;-70
2022/03/25 12:34:29;;;;;;;0.20;0.10;;;20.30;99.90;;;;;;20862985;28;20305;-70
2022/03/25 12:44:33;;;;;;;0.33;0.33;;;21.00;99.90;;;;;;20856593;28;20206;-70
2022/03/25 12:54:38;;;;;;;0.20;0.10;;;21.40;99.90;;;;;;20869130;28;20233;-69
2022/03/25 13:04:42;;;;;;;0.37;0.37;;;21.00;99.90;;;;;;20876395;28;20210;-74
2022/03/25 13:14:54;;;;;;;0.20;0.00;;;20.90;99.90;;;;;;20875305;28;20234;-75
2022/03/25 13:25:00;;;;;;;0.20;0.10;;;20.00;99.90;;;;;;20875907;28;20221;-76
2022/03/25 13:35:09;;;;;;;0.20;0.20;;;20.40;99.90;;;;;;20866720;28;20737;-76
2022/03/25 13:45:14;;;;;;;0.20;0.10;;;19.20;99.90;;;;;;20855351;28;20202;-64
2022/03/25 13:55:20;;;;;;;0.20;0.13;;;19.20;99.90;;;;;;20859092;28;20230;-64
2022/03/25 14:05:25;;;;;;;0.20;0.17;;;19.10;99.90;;;;;;20870784;28;20208;-63
2022/03/25 14:15:31;;;;;;;0.20;0.10;;;18.10;99.90;;;;;;20871453;28;20473;-63
2022/03/25 14:25:54;;;;;;;0.30;0.23;;;18.30;99.90;;;;;;20868718;28;20729;-63
2022/03/25 14:36:00;;;;;;;0.40;0.40;;;20.60;99.90;;;;;;20869654;28;20232;-62
2022/03/25 14:46:03;;;;;;;0.30;0.23;;;18.90;99.90;;;;;;20849867;28;20209;-62
2022/03/25 14:56:09;;;;;;;0.20;0.10;;;18.90;99.90;;;;;;20864885;28;20512;-75
2022/03/25 15:06:14;;;;;;;0.50;0.43;;;18.80;99.90;;;;;;20864389;28;20190;-76
2022/03/25 15:16:19;;;;;;;0.20;0.10;;;18.40;99.90;;;;;;20864337;28;20260;-75
2022/03/25 15:26:23;;;;;;;0.20;0.10;;;19.80;99.90;;;;;;20848592;28;20198;-75
2022/03/25 15:36:29;;;;;;;1.40;0.43;;;20.10;99.90;;;;;;20867697;28;20661;-62
2022/03/25 15:46:47;;;;;;;0.30;0.30;;;19.80;99.90;;;;;;20869166;28;20206;-64
2022/03/25 15:56:52;;;;;;;0.20;0.10;;;19.60;99.90;;;;;;20866596;28;20244;-64
2022/03/25 16:06:56;;;;;;;0.27;0.27;;;18.00;99.90;;;;;;20868070;28;20202;-64
2022/03/25 16:17:03;;;;;;;0.20;0.10;;;18.00;99.90;;;;;;20863323;28;20222;-64
2022/03/25 16:27:08;;;;;;;0.20;0.10;;;17.60;99.90;;;;;;20872771;28;20190;-64
2022/03/25 16:37:15;;;;;;;0.20;0.10;;;17.40;99.90;;;;;;20878642;28;20234;-63
2022/03/25 16:47:19;;;;;;;0.20;0.10;;;17.20;99.90;;;;;;20878151;28;20198;-62
2022/03/25 16:57:24;;;;;;;0.20;0.10;;;16.70;99.90;;;;;;20879183;28;20237;-62
2022/03/25 17:07:28;;;;;;;0.20;0.10;;;16.30;99.90;;;;;;20876427;28;20267;-63
2022/03/25 17:17:33;;;;;;;0.20;0.20;;;16.20;99.90;;;;;;20878851;28;20252;-64
2022/03/25 17:27:37;;;;;;;0.20;0.10;;;15.50;99.90;;;;;;20872427;28;20224;-65
2022/03/25 17:37:42;;;;;;;0.20;0.10;;;15.30;99.90;;;;;;20878645;28;20230;-64
2022/03/25 17:47:47;;;;;;;0.20;0.10;;;14.90;99.90;;;;;;20882700;28;20237;-65
2022/03/25 17:57:54;;;;;;;0.33;0.30;;;14.60;99.90;;;;;;20864420;28;20230;-63
2022/03/25 18:07:58;;;;;;;0.20;0.10;;;14.20;99.90;;;;;;20864407;28;20198;-64
2022/03/25 18:18:03;;;;;;;0.20;0.10;;;14.00;99.90;;;;;;20879599;28;20274;-62
2022/03/25 18:28:07;;;;;;;0.73;0.73;;;14.00;99.90;;;;;;20882037;28;20198;-64
2022/03/25 18:38:13;;;;;;;0.20;0.00;;;13.80;99.90;;;;;;20861502;28;20214;-63
2022/03/25 18:48:17;;;;;;;0.20;0.10;;;13.60;99.90;;;;;;20781494;28;20287;-62
2022/03/25 18:58:22;;;;;;;0.20;0.10;;;13.50;99.90;;;;;;20784934;28;20218;-62
2022/03/25 19:08:26;;;;;;;1.13;1.03;;;13.40;99.90;;;;;;20830377;28;20198;-63
2022/03/25 19:18:33;;;;;;;0.20;0.10;;;13.30;99.90;;;;;;20869549;28;20248;-63
2022/03/25 19:28:38;;;;;;;0.20;0.10;;;13.20;99.90;;;;;;20881658;28;20224;-61
2022/03/25 19:38:43;;;;;;;0.20;0.10;;;13.10;99.90;;;;;;20870408;28;20218;-62
2022/03/25 19:48:46;;;;;;;0.20;0.13;;;13.00;99.90;;;;;;20878360;28;20226;-63
2022/03/25 19:58:51;;;;;;;0.20;0.10;;;13.20;99.90;;;;;;20881478;28;20290;-62
2022/03/25 20:08:55;;;;;;;0.20;0.10;;;13.30;99.90;;;;;;20893937;28;20198;-63
2022/03/25 20:19:00;;;;;;;0.20;0.10;;;13.30;99.90;;;;;;20892642;28;20235;-63
2022/03/25 20:29:10;;;;;;;0.20;0.10;;;13.20;99.90;;;;;;20882056;28;20212;-79
2022/03/25 20:39:16;;;;;;;0.20;0.10;;;13.10;99.90;;;;;;20903906;28;20297;-80
